createdAt,value
2018-12-30T00:00:26.966Z,11.88
2018-12-30T00:02:56.859Z,10.85
2018-12-30T00:05:26.447Z,9.43
2018-12-30T00:07:56.047Z,9.73
2018-12-30T00:10:26.045Z,10.15
2018-12-30T00:12:55.560Z,10.43
2018-12-30T00:15:25.079Z,9.80
2018-12-30T00:17:54.829Z,10.78
2018-12-30T00:20:24.523Z,11.03
2018-12-30T00:22:54.193Z,11.45
2018-12-30T00:25:24.139Z,11.85
2018-12-30T00:27:53.863Z,13.03
2018-12-30T00:30:23.553Z,12.05
2018-12-30T00:32:53.279Z,12.73
2018-12-30T00:35:23.051Z,12.33
2018-12-30T00:37:52.792Z,13.13
2018-12-30T00:40:22.424Z,17.27
2018-12-30T00:42:52.096Z,16.42
2018-12-30T00:45:21.511Z,21.77
2018-12-30T00:47:51.470Z,15.13
2018-12-30T00:50:20.906Z,14.65
2018-12-30T00:52:50.669Z,14.90
2018-12-30T00:55:20.330Z,14.83
2018-12-30T00:57:50.041Z,13.78
2018-12-30T01:00:21.628Z,12.37
2018-12-30T01:02:51.199Z,14.43
2018-12-30T01:05:24.430Z,16.52
2018-12-30T01:07:53.998Z,18.48
2018-12-30T01:10:23.508Z,20.52
2018-12-30T01:12:53.559Z,13.50
2018-12-30T01:15:23.715Z,14.05
2018-12-30T01:17:53.371Z,13.58
2018-12-30T01:20:23.421Z,14.90
2018-12-30T01:22:53.001Z,13.85
2018-12-30T01:25:22.525Z,10.25
2018-12-30T01:27:52.237Z,12.33
2018-12-30T01:30:21.527Z,11.22
2018-12-30T01:32:51.026Z,14.18
2018-12-30T01:35:20.511Z,13.62
2018-12-30T01:37:50.160Z,16.17
2018-12-30T01:40:19.672Z,13.08
2018-12-30T01:42:49.689Z,13.35
2018-12-30T01:45:19.131Z,13.85
2018-12-30T01:47:48.880Z,13.10
2018-12-30T01:50:18.714Z,15.38
2018-12-30T01:52:48.400Z,13.88
2018-12-30T01:55:17.923Z,13.18
2018-12-30T01:57:47.699Z,13.95
2018-12-30T02:00:17.222Z,15.23
2018-12-30T02:02:46.972Z,13.90
2018-12-30T02:05:16.688Z,14.78
2018-12-30T02:07:46.363Z,13.70
2018-12-30T02:10:16.729Z,14.95
2018-12-30T02:12:46.378Z,13.25
2018-12-30T02:15:15.962Z,52.15
2018-12-30T02:17:45.712Z,22.40
2018-12-30T02:20:15.315Z,15.72
2018-12-30T02:22:45.103Z,13.78
2018-12-30T02:25:14.836Z,14.00
2018-12-30T02:27:44.668Z,12.10
2018-12-30T02:30:14.363Z,13.10
2018-12-30T02:32:44.261Z,14.68
2018-12-30T02:35:13.906Z,14.28
2018-12-30T02:37:43.492Z,13.20
2018-12-30T02:40:13.393Z,12.80
2018-12-30T02:42:44.244Z,13.68
2018-12-30T02:45:14.595Z,12.60
2018-12-30T02:47:44.080Z,12.53
2018-12-30T02:50:13.588Z,12.65
2018-12-30T02:52:43.309Z,95.00
2018-12-30T02:55:13.013Z,86.02
2018-12-30T02:57:42.832Z,14.10
2018-12-30T03:00:12.570Z,12.10
2018-12-30T03:02:42.030Z,13.35
2018-12-30T03:05:11.912Z,11.78
2018-12-30T03:07:41.453Z,12.93
2018-12-30T03:10:11.177Z,13.55
2018-12-30T03:12:40.976Z,13.03
2018-12-30T03:15:10.324Z,12.40
2018-12-30T03:17:39.982Z,18.82
2018-12-30T03:20:10.000Z,12.50
2018-12-30T03:22:39.534Z,13.13
2018-12-30T03:25:09.136Z,12.30
2018-12-30T03:27:39.107Z,11.15
2018-12-30T03:30:08.774Z,11.78
2018-12-30T03:32:38.245Z,10.23
2018-12-30T03:35:08.214Z,9.93
2018-12-30T03:37:38.079Z,10.48
2018-12-30T03:40:08.644Z,10.78
2018-12-30T03:42:38.276Z,10.45
2018-12-30T03:45:07.732Z,10.48
2018-12-30T03:47:37.332Z,10.60
2018-12-30T03:50:07.483Z,10.20
2018-12-30T03:52:37.235Z,11.18
2018-12-30T03:55:06.804Z,11.30
2018-12-30T03:57:36.388Z,11.70
2018-12-30T04:00:06.505Z,12.15
2018-12-30T04:02:35.973Z,11.60
2018-12-30T04:05:05.745Z,12.20
2018-12-30T04:07:35.332Z,11.60
2018-12-30T04:10:05.220Z,11.35
2018-12-30T04:12:35.404Z,10.28
2018-12-30T04:15:05.130Z,11.55
2018-12-30T04:17:34.791Z,10.05
2018-12-30T04:20:05.074Z,11.70
2018-12-30T04:22:34.809Z,12.78
2018-12-30T04:25:04.372Z,16.80
2018-12-30T04:27:34.225Z,11.30
2018-12-30T04:30:03.810Z,12.13
2018-12-30T04:32:33.478Z,12.07
2018-12-30T04:35:03.516Z,12.18
2018-12-30T04:37:33.041Z,11.18
2018-12-30T04:40:02.680Z,11.45
2018-12-30T04:42:32.460Z,11.45
2018-12-30T04:45:02.233Z,11.57
2018-12-30T04:47:31.716Z,11.73
2018-12-30T04:50:01.596Z,10.93
2018-12-30T04:52:31.450Z,11.40
2018-12-30T04:55:01.063Z,11.78
2018-12-30T04:57:31.100Z,11.30
2018-12-30T05:00:00.803Z,11.75
2018-12-30T05:02:30.491Z,11.33
2018-12-30T05:05:00.372Z,12.93
2018-12-30T05:07:29.830Z,12.58
2018-12-30T05:09:59.624Z,11.78
2018-12-30T05:12:30.357Z,11.78
2018-12-30T05:14:59.861Z,12.78
2018-12-30T05:17:29.420Z,15.50
2018-12-30T05:19:59.370Z,45.70
2018-12-30T05:22:33.833Z,36.88
2018-12-30T05:24:58.916Z,19.07
2018-12-30T05:27:28.569Z,20.12
2018-12-30T05:29:57.934Z,23.35
2018-12-30T05:32:27.463Z,16.52
2018-12-30T05:34:57.588Z,30.08
2018-12-30T05:37:27.151Z,14.23
2018-12-30T05:39:56.850Z,15.80
2018-12-30T05:42:26.518Z,14.38
2018-12-30T05:44:56.101Z,21.35
2018-12-30T05:47:25.782Z,26.33
2018-12-30T05:49:55.711Z,83.72
2018-12-30T05:52:25.311Z,34.10
2018-12-30T05:54:54.872Z,17.25
2018-12-30T05:57:25.003Z,17.27
2018-12-30T05:59:54.720Z,15.65
2018-12-30T06:02:24.488Z,14.80
2018-12-30T06:04:54.034Z,14.25
2018-12-30T06:07:23.539Z,15.60
2018-12-30T06:09:53.103Z,15.20
2018-12-30T06:12:22.935Z,14.47
2018-12-30T06:14:52.600Z,18.00
2018-12-30T06:17:22.126Z,16.37
2018-12-30T06:19:52.067Z,19.48
2018-12-30T06:22:21.410Z,17.80
2018-12-30T06:24:50.947Z,13.72
2018-12-30T06:27:20.408Z,16.57
2018-12-30T06:29:50.060Z,17.65
2018-12-30T06:32:21.354Z,15.65
2018-12-30T06:34:50.931Z,14.15
2018-12-30T06:37:20.408Z,13.32
2018-12-30T06:39:50.080Z,15.83
2018-12-30T06:42:19.422Z,14.95
2018-12-30T06:44:49.039Z,14.38
2018-12-30T06:47:18.617Z,16.05
2018-12-30T06:49:48.249Z,15.08
2018-12-30T06:52:17.900Z,12.82
2018-12-30T06:54:47.857Z,13.35
2018-12-30T06:57:17.425Z,14.43
2018-12-30T06:59:47.304Z,16.25
2018-12-30T07:02:17.139Z,15.23
2018-12-30T07:04:46.709Z,13.58
2018-12-30T07:07:16.435Z,23.92
2018-12-30T07:09:45.965Z,12.82
2018-12-30T07:12:15.479Z,11.95
2018-12-30T07:14:44.951Z,12.82
2018-12-30T07:17:15.237Z,12.73
2018-12-30T07:19:45.425Z,13.78
2018-12-30T07:22:14.511Z,15.53
2018-12-30T07:24:44.597Z,16.23
2018-12-30T07:27:14.114Z,20.43
2018-12-30T07:29:43.892Z,22.82
2018-12-30T07:32:13.990Z,25.05
2018-12-30T07:34:43.543Z,24.90
2018-12-30T07:37:13.169Z,24.00
2018-12-30T07:39:42.797Z,24.25
2018-12-30T07:42:12.299Z,24.47
2018-12-30T07:44:41.746Z,22.87
2018-12-30T07:47:17.988Z,22.52
2018-12-30T07:49:47.552Z,23.52
2018-12-30T07:52:17.229Z,22.65
2018-12-30T07:54:47.146Z,21.80
2018-12-30T07:57:16.687Z,21.70
2018-12-30T07:59:46.440Z,22.62
2018-12-30T08:02:16.303Z,21.70
2018-12-30T08:04:46.024Z,21.15
2018-12-30T08:07:15.420Z,22.20
2018-12-30T08:09:45.368Z,21.05
2018-12-30T08:12:15.060Z,21.30
2018-12-30T08:14:44.758Z,21.65
2018-12-30T08:17:14.767Z,18.35
2018-12-30T08:19:44.385Z,16.57
2018-12-30T08:22:14.134Z,12.18
2018-12-30T08:24:44.000Z,11.80
2018-12-30T08:27:13.688Z,10.95
2018-12-30T08:29:43.351Z,23.40
2018-12-30T08:32:13.279Z,94.92
2018-12-30T08:34:42.852Z,12.88
2018-12-30T08:37:12.457Z,11.78
2018-12-30T08:39:41.898Z,11.12
2018-12-30T08:42:11.668Z,12.10
2018-12-30T08:44:41.114Z,10.32
2018-12-30T08:47:11.044Z,10.38
2018-12-30T08:49:40.748Z,11.33
2018-12-30T08:52:10.527Z,10.35
2018-12-30T08:54:40.623Z,19.00
2018-12-30T08:57:10.362Z,119.72
2018-12-30T08:59:40.092Z,17.82
2018-12-30T09:02:09.800Z,11.55
2018-12-30T09:04:39.408Z,12.43
2018-12-30T09:07:08.883Z,13.03
2018-12-30T09:09:38.675Z,14.18
2018-12-30T09:12:08.409Z,14.10
2018-12-30T09:14:38.059Z,12.75
2018-12-30T09:17:07.705Z,14.50
2018-12-30T09:19:37.179Z,19.57
2018-12-30T09:22:06.633Z,16.62
2018-12-30T09:24:36.481Z,17.87
2018-12-30T09:27:06.070Z,17.73
2018-12-30T09:29:35.486Z,20.85
2018-12-30T09:32:05.235Z,19.30
2018-12-30T09:34:34.636Z,21.73
2018-12-30T09:37:04.120Z,19.67
2018-12-30T09:39:34.203Z,19.00
2018-12-30T09:42:04.065Z,17.12
2018-12-30T09:44:33.747Z,16.60
2018-12-30T09:47:03.549Z,17.40
2018-12-30T09:49:33.045Z,19.55
2018-12-30T09:52:02.696Z,15.53
2018-12-30T09:54:32.498Z,14.98
2018-12-30T09:57:02.188Z,14.10
2018-12-30T09:59:31.687Z,15.03
2018-12-30T10:02:01.453Z,15.25
2018-12-30T10:04:30.824Z,15.65
2018-12-30T10:07:00.355Z,18.12
2018-12-30T10:09:30.144Z,20.82
2018-12-30T10:11:59.759Z,30.57
2018-12-30T10:14:29.451Z,18.62
2018-12-30T10:16:59.375Z,17.20
2018-12-30T10:19:29.180Z,16.15
2018-12-30T10:21:58.904Z,29.57
2018-12-30T10:24:28.912Z,17.65
2018-12-30T10:26:58.501Z,24.70
2018-12-30T10:29:28.000Z,19.90
2018-12-30T10:31:57.851Z,19.27
2018-12-30T10:34:27.438Z,32.53
2018-12-30T10:36:56.931Z,21.10
2018-12-30T10:39:27.025Z,18.37
2018-12-30T10:41:57.216Z,16.35
2018-12-30T10:44:25.853Z,15.95
2018-12-30T10:46:55.557Z,15.15
2018-12-30T10:49:25.211Z,14.58
2018-12-30T10:51:54.674Z,12.47
2018-12-30T10:54:24.525Z,13.10
2018-12-30T10:56:54.167Z,14.38
2018-12-30T10:59:23.605Z,14.85
2018-12-30T11:01:53.348Z,17.05
2018-12-30T11:04:22.932Z,15.35
2018-12-30T11:06:52.534Z,15.20
2018-12-30T11:09:22.193Z,15.20
2018-12-30T11:11:51.641Z,15.58
2018-12-30T11:14:21.063Z,15.50
2018-12-30T11:16:50.740Z,16.52
2018-12-30T11:19:20.131Z,22.50
2018-12-30T11:21:49.723Z,24.23
2018-12-30T11:24:19.337Z,15.75
2018-12-30T11:26:48.775Z,18.02
2018-12-30T11:29:18.256Z,18.95
2018-12-30T11:31:47.973Z,19.37
2018-12-30T11:34:17.510Z,17.30
2018-12-30T11:36:47.138Z,26.70
2018-12-30T11:39:16.669Z,17.55
2018-12-30T11:41:46.119Z,19.92
2018-12-30T11:44:15.779Z,19.67
2018-12-30T11:46:45.206Z,16.77
2018-12-30T11:49:14.905Z,15.18
2018-12-30T11:51:44.359Z,16.02
2018-12-30T11:54:16.606Z,16.40
2018-12-30T11:56:43.723Z,15.98
2018-12-30T11:59:13.324Z,17.55
2018-12-30T12:01:43.184Z,18.23
2018-12-30T12:04:12.691Z,21.42
2018-12-30T12:06:42.316Z,38.02
2018-12-30T12:09:12.053Z,22.62
2018-12-30T12:11:41.780Z,19.57
2018-12-30T12:14:11.332Z,19.67
2018-12-30T12:16:41.493Z,16.77
2018-12-30T12:19:10.974Z,18.27
2018-12-30T12:21:40.814Z,20.50
2018-12-30T12:24:10.636Z,21.45
2018-12-30T12:26:40.314Z,16.82
2018-12-30T12:29:09.927Z,36.30
2018-12-30T12:31:39.651Z,143.28
2018-12-30T12:34:09.141Z,15.63
2018-12-30T12:36:38.883Z,15.90
2018-12-30T12:39:08.644Z,18.35
2018-12-30T12:41:38.063Z,20.32
2018-12-30T12:44:07.759Z,18.70
2018-12-30T12:46:37.670Z,17.75
2018-12-30T12:49:07.260Z,15.90
2018-12-30T12:51:37.008Z,16.17
2018-12-30T12:54:06.552Z,23.32
2018-12-30T12:56:36.126Z,16.15
2018-12-30T12:59:05.426Z,15.23
2018-12-30T13:01:35.362Z,16.80
2018-12-30T13:04:05.044Z,14.15
2018-12-30T13:06:34.772Z,19.82
2018-12-30T13:09:06.077Z,15.28
2018-12-30T13:11:35.716Z,13.68
2018-12-30T13:14:05.818Z,13.38
2018-12-30T13:16:35.319Z,14.20
2018-12-30T13:19:04.868Z,15.15
2018-12-30T13:21:34.756Z,16.12
2018-12-30T13:24:04.514Z,15.45
2018-12-30T13:26:34.085Z,13.35
2018-12-30T13:29:03.921Z,13.95
2018-12-30T13:31:33.673Z,15.32
2018-12-30T13:34:03.307Z,13.50
2018-12-30T13:36:33.149Z,14.20
2018-12-30T13:39:02.804Z,13.90
2018-12-30T13:41:32.358Z,14.98
2018-12-30T13:44:02.089Z,13.95
2018-12-30T13:46:31.613Z,13.88
2018-12-30T13:49:01.193Z,14.35
2018-12-30T13:51:30.815Z,14.23
2018-12-30T13:54:00.479Z,14.83
2018-12-30T13:56:29.984Z,21.27
2018-12-30T13:59:00.694Z,37.53
2018-12-30T14:01:30.467Z,16.45
2018-12-30T14:04:00.095Z,16.52
2018-12-30T14:06:29.983Z,15.08
2018-12-30T14:08:59.569Z,15.75
2018-12-30T14:11:28.959Z,15.08
2018-12-30T14:13:58.761Z,15.18
2018-12-30T14:16:28.324Z,16.10
2018-12-30T14:18:57.821Z,13.32
2018-12-30T14:21:27.681Z,15.45
2018-12-30T14:23:57.062Z,23.73
2018-12-30T14:26:26.529Z,18.90
2018-12-30T14:28:56.260Z,46.20
2018-12-30T14:31:25.684Z,13.65
2018-12-30T14:33:55.424Z,14.83
2018-12-30T14:36:25.387Z,16.23
2018-12-30T14:38:54.754Z,16.20
2018-12-30T14:41:24.475Z,15.98
2018-12-30T14:43:54.268Z,15.78
2018-12-30T14:46:23.922Z,32.42
2018-12-30T14:48:53.500Z,31.70
2018-12-30T14:51:23.634Z,13.20
2018-12-30T14:53:53.347Z,12.75
2018-12-30T14:56:23.088Z,12.05
2018-12-30T14:58:52.728Z,13.58
2018-12-30T15:01:22.249Z,14.23
2018-12-30T15:03:51.973Z,16.87
2018-12-30T15:06:21.648Z,15.30
2018-12-30T15:08:51.332Z,16.23
2018-12-30T15:11:22.767Z,19.02
2018-12-30T15:13:52.357Z,18.50
2018-12-30T15:16:24.143Z,18.85
2018-12-30T15:18:53.603Z,24.43
2018-12-30T15:21:23.115Z,20.80
2018-12-30T15:23:52.756Z,22.13
2018-12-30T15:26:22.343Z,21.42
2018-12-30T15:28:51.968Z,22.55
2018-12-30T15:31:21.883Z,22.22
2018-12-30T15:33:51.677Z,42.45
2018-12-30T15:36:21.168Z,36.83
2018-12-30T15:38:51.020Z,45.95
2018-12-30T15:41:20.463Z,27.50
2018-12-30T15:43:50.204Z,24.32
2018-12-30T15:46:19.587Z,25.85
2018-12-30T15:48:49.126Z,25.77
2018-12-30T15:51:18.467Z,23.22
2018-12-30T15:53:48.063Z,22.77
2018-12-30T15:56:17.615Z,23.85
2018-12-30T15:58:47.214Z,25.25
2018-12-30T16:01:17.137Z,28.15
2018-12-30T16:03:46.875Z,33.13
2018-12-30T16:06:16.359Z,31.85
2018-12-30T16:08:45.792Z,30.15
2018-12-30T16:11:15.495Z,30.15
2018-12-30T16:13:44.977Z,31.02
2018-12-30T16:16:14.427Z,30.80
2018-12-30T16:18:44.019Z,33.15
2018-12-30T16:21:13.580Z,28.57
2018-12-30T16:23:43.575Z,30.90
2018-12-30T16:26:13.004Z,29.12
2018-12-30T16:28:42.420Z,30.60
2018-12-30T16:31:12.275Z,28.85
2018-12-30T16:33:41.681Z,29.45
2018-12-30T16:36:11.351Z,27.87
2018-12-30T16:38:41.231Z,56.25
2018-12-30T16:41:10.894Z,26.20
2018-12-30T17:01:02.612Z,25.65
2018-12-30T17:03:32.344Z,26.52
2018-12-30T17:06:01.957Z,26.23
2018-12-30T17:08:31.475Z,27.60
2018-12-30T17:11:01.098Z,26.48
2018-12-30T17:13:30.659Z,26.27
2018-12-30T17:16:00.309Z,26.82
2018-12-30T17:18:29.913Z,29.77
2018-12-30T17:20:59.597Z,28.95
2018-12-30T17:23:29.647Z,28.57
2018-12-30T17:25:59.357Z,29.23
2018-12-30T17:28:29.086Z,27.58
2018-12-30T17:31:05.329Z,29.12
2018-12-30T17:33:35.021Z,29.37
2018-12-30T17:36:04.720Z,27.93
2018-12-30T17:38:34.707Z,28.00
2018-12-30T17:58:26.274Z,28.07
2018-12-30T18:00:56.299Z,30.82
2018-12-30T18:20:48.053Z,25.43
2018-12-30T18:23:17.723Z,27.22
2018-12-30T18:25:47.237Z,32.78
2018-12-30T18:28:16.786Z,43.52
2018-12-30T18:30:46.790Z,24.98
2018-12-30T18:33:16.425Z,22.90
2018-12-30T18:53:07.867Z,17.25
2018-12-30T19:12:59.380Z,20.00
2018-12-30T19:15:29.120Z,17.30
2018-12-30T19:17:58.678Z,17.42
2018-12-30T19:20:28.311Z,24.35
2018-12-30T19:22:58.048Z,26.68
2018-12-30T19:25:27.692Z,25.00
2018-12-30T19:27:57.164Z,41.98
2018-12-30T19:30:27.125Z,19.10
2018-12-30T19:32:56.905Z,32.13
2018-12-30T19:35:26.469Z,26.33
2018-12-30T19:55:18.383Z,30.40
2018-12-30T19:57:47.826Z,20.35
2018-12-30T20:00:20.097Z,18.77
2018-12-30T20:20:12.294Z,87.57
2018-12-30T20:22:41.820Z,106.52
2018-12-30T20:25:11.597Z,115.45
2018-12-30T20:27:41.364Z,131.18
2018-12-30T20:30:10.888Z,123.85
2018-12-30T20:50:02.388Z,71.55
2018-12-30T21:09:54.487Z,64.00
2018-12-30T21:12:24.309Z,64.75
2018-12-30T21:38:03.801Z,75.35
2018-12-30T21:57:55.663Z,49.42
2018-12-30T22:17:46.864Z,48.58
2018-12-30T22:20:16.444Z,48.85
2018-12-30T22:22:45.989Z,47.27
2018-12-30T22:25:21.979Z,51.15
2018-12-30T22:27:51.680Z,51.80
2018-12-30T22:30:21.065Z,54.38
2018-12-30T22:32:50.909Z,56.30
2018-12-30T22:35:20.278Z,55.05
2018-12-30T22:37:49.887Z,57.58
2018-12-30T22:40:19.251Z,56.70
2018-12-30T22:42:48.783Z,58.92
2018-12-30T22:45:18.091Z,62.95
2018-12-30T22:47:47.973Z,67.50
2018-12-30T22:50:17.436Z,64.75
2018-12-30T22:52:48.915Z,64.92
2018-12-30T22:55:17.065Z,64.82
2018-12-30T22:57:46.802Z,64.70
2018-12-30T23:02:27.123Z,67.62
2018-12-30T23:04:56.592Z,67.30
2018-12-30T23:07:26.534Z,65.70
2018-12-30T23:09:56.139Z,65.17
2018-12-30T23:29:47.686Z,55.40
2018-12-30T23:32:17.359Z,55.85
2018-12-30T23:52:09.471Z,54.23
2018-12-30T23:54:38.879Z,79.92
2018-12-30T23:57:08.347Z,51.35
2018-12-30T23:59:38.131Z,51.75
